Colville Lake, Northwest Territories

Past 24 Hour Conditions

This table is a summary of hourly weather conditions for the past 24 hours. This summary includes the following parameters: temperature, humidity, dew point, wind speed and direction, air pressure, visibility and/or wind chill and humidex.
Date / Time
(MDT)
Conditions Temp (°C) Humidity (%) Dew Point (°C) Wind (km/h) Pressure (kPa) Vis (km) Wind Chill
16 April 2014
22:00 N/A 0 53 -8 ESE 8 101.0 N/A *
21:00 N/A 3   46 -8 E 9 101.0 N/A *
20:00 N/A 3   44 -8 ESE 11 101.1 N/A *
19:00 N/A 3   43 -8 E 17 101.1 N/A *
18:00 N/A 3   45 -8 E 17 101.1 N/A *
17:00 N/A 1 64 -5 NW 3 101.2 N/A *
16:00 N/A 1 61 -6 calm 101.2 N/A *
15:00 N/A -2 67 -7 NNW 4 101.2 N/A -3
14:00 N/A -4 73 -9 N 4 101.3 N/A -6
13:00 N/A -6 74 -9 NE 5 101.3 N/A -8
12:00 N/A -7 71 -11 NNE 7 101.3 N/A -10
11:00 N/A -5 59 -12 NE 3 101.3 N/A -7
10:00 N/A -6 63 -12 N 2 101.3 N/A -7
9:00 N/A -7 70 -12 NE 2 101.3 N/A -8
8:00 N/A -8   76 -11 SSW 5 101.4 N/A -10
7:00 N/A -7 75 -11 calm 101.4 N/A *
6:00 N/A -7 76 -11 ENE 5 101.4 N/A -10
5:00 N/A -6 74 -10 N 4 101.4 N/A -8
4:00 N/A -7 78 -11 NE 6 101.4 N/A -11
3:00 N/A -5 72 -10 calm 101.4 N/A *
2:00 N/A -4 65 -10 SW 6 101.4 N/A -7
1:00 N/A -1 59 -8 S 14 101.4 N/A -6
00:00 N/A -1 57 -8 S 24 101.4 N/A -7
15 April 2014
23:00 N/A 0 55 -8 S 26 101.4 N/A -7
22:00 N/A -1 56 -8 S 25 101.5 N/A -7
N/A
Not available
 ↑ 
Highest temperature
 ↓ 
Lowest temperature
*
Value not significant.

If you require additional historical weather information, please visit Climate Data Online.